Terminal Aerodrome Forecast
Issued by NWS

Home | Current Version | Previous Version | Text Only | Print | Product List | Glossary On
Versions: 1 2 3 4 5 6 7 8 9 10 11 12 13 14 15 16 17 18 19 20 21 22 23 24
000
FTUS44 KEWX 261737
TAFSSF
TAF
KSSF 261737Z 2618/2718 17012KT P6SM FEW050 FEW250
     FM262100 14013KT P6SM SCT060 SCT250
     FM270900 17007KT P6SM SCT012
     FM271400 18009KT P6SM SCT030 SCT250=

USA.gov is the U.S. government's official web portal to all federal, state and local government web resources and services.